sensor_id;sensor_type;location;lat;lon;timestamp;P1;durP1;ratioP1;P2;durP2;ratioP2
27265;SDS011;14766;51.380;13.762;2023-02-21T00:01:40;5.57;;;2.88;;
27265;SDS011;14766;51.380;13.762;2023-02-21T00:04:26;3.85;;;2.40;;
27265;SDS011;14766;51.380;13.762;2023-02-21T00:07:13;3.78;;;2.45;;
27265;SDS011;14766;51.380;13.762;2023-02-21T00:09:58;4.57;;;2.33;;
27265;SDS011;14766;51.380;13.762;2023-02-21T00:12:44;5.75;;;2.85;;
27265;SDS011;14766;51.380;13.762;2023-02-21T00:15:29;2.63;;;2.10;;
27265;SDS011;14766;51.380;13.762;2023-02-21T00:18:15;3.17;;;2.42;;
27265;SDS011;14766;51.380;13.762;2023-02-21T00:21:01;3.85;;;2.78;;
27265;SDS011;14766;51.380;13.762;2023-02-21T00:23:47;3.47;;;2.33;;
27265;SDS011;14766;51.380;13.762;2023-02-21T00:26:32;4.30;;;2.50;;
27265;SDS011;14766;51.380;13.762;2023-02-21T00:29:18;4.97;;;2.83;;
27265;SDS011;14766;51.380;13.762;2023-02-21T00:32:07;3.75;;;2.65;;
27265;SDS011;14766;51.380;13.762;2023-02-21T00:34:52;4.72;;;3.10;;
27265;SDS011;14766;51.380;13.762;2023-02-21T00:37:38;2.92;;;2.47;;
27265;SDS011;14766;51.380;13.762;2023-02-21T00:40:23;3.30;;;2.35;;
27265;SDS011;14766;51.380;13.762;2023-02-21T00:43:09;5.55;;;2.97;;
27265;SDS011;14766;51.380;13.762;2023-02-21T00:45:55;3.93;;;2.83;;
27265;SDS011;14766;51.380;13.762;2023-02-21T00:48:40;4.18;;;2.90;;
27265;SDS011;14766;51.380;13.762;2023-02-21T00:51:26;4.68;;;3.00;;
27265;SDS011;14766;51.380;13.762;2023-02-21T00:54:12;3.75;;;2.60;;
27265;SDS011;14766;51.380;13.762;2023-02-21T00:56:57;5.55;;;2.78;;
27265;SDS011;14766;51.380;13.762;2023-02-21T00:59:43;4.77;;;2.97;;
27265;SDS011;14766;51.380;13.762;2023-02-21T01:02:29;5.43;;;3.08;;
27265;SDS011;14766;51.380;13.762;2023-02-21T01:05:14;4.37;;;2.80;;
27265;SDS011;14766;51.380;13.762;2023-02-21T01:08:01;4.95;;;3.10;;
27265;SDS011;14766;51.380;13.762;2023-02-21T01:10:47;4.72;;;2.92;;
27265;SDS011;14766;51.380;13.762;2023-02-21T01:13:32;5.68;;;3.20;;
27265;SDS011;14766;51.380;13.762;2023-02-21T01:16:18;5.60;;;3.15;;
27265;SDS011;14766;51.380;13.762;2023-02-21T01:19:04;4.32;;;2.75;;
27265;SDS011;14766;51.380;13.762;2023-02-21T01:21:50;4.27;;;3.17;;
27265;SDS011;14766;51.380;13.762;2023-02-21T01:24:36;3.95;;;3.10;;
27265;SDS011;14766;51.380;13.762;2023-02-21T01:27:22;4.38;;;2.90;;
27265;SDS011;14766;51.380;13.762;2023-02-21T01:30:08;6.50;;;3.70;;
27265;SDS011;14766;51.380;13.762;2023-02-21T01:32:54;5.28;;;3.53;;
27265;SDS011;14766;51.380;13.762;2023-02-21T01:35:40;4.78;;;3.35;;
27265;SDS011;14766;51.380;13.762;2023-02-21T01:38:27;4.60;;;3.10;;
27265;SDS011;14766;51.380;13.762;2023-02-21T01:41:13;5.40;;;3.20;;
27265;SDS011;14766;51.380;13.762;2023-02-21T01:44:00;4.43;;;3.50;;
27265;SDS011;14766;51.380;13.762;2023-02-21T01:47:12;6.38;;;3.50;;
27265;SDS011;14766;51.380;13.762;2023-02-21T01:49:58;6.20;;;4.07;;
27265;SDS011;14766;51.380;13.762;2023-02-21T01:52:47;5.93;;;3.88;;
27265;SDS011;14766;51.380;13.762;2023-02-21T01:55:35;5.93;;;4.50;;
27265;SDS011;14766;51.380;13.762;2023-02-21T01:58:23;6.75;;;3.80;;
27265;SDS011;14766;51.380;13.762;2023-02-21T02:01:11;8.80;;;3.95;;
27265;SDS011;14766;51.380;13.762;2023-02-21T02:04:07;5.35;;;3.90;;
27265;SDS011;14766;51.380;13.762;2023-02-21T02:06:53;7.53;;;4.25;;
27265;SDS011;14766;51.380;13.762;2023-02-21T02:09:38;6.63;;;3.90;;
27265;SDS011;14766;51.380;13.762;2023-02-21T02:35:21;6.85;;;4.55;;
27265;SDS011;14766;51.380;13.762;2023-02-21T02:40:32;6.55;;;4.32;;
27265;SDS011;14766;51.380;13.762;2023-02-21T02:49:09;7.47;;;4.05;;
27265;SDS011;14766;51.380;13.762;2023-02-21T02:51:39;6.00;;;4.28;;
27265;SDS011;14766;51.380;13.762;2023-02-21T02:54:08;10.68;;;4.72;;
27265;SDS011;14766;51.380;13.762;2023-02-21T02:56:35;8.38;;;4.88;;
27265;SDS011;14766;51.380;13.762;2023-02-21T02:59:16;7.95;;;4.88;;
27265;SDS011;14766;51.380;13.762;2023-02-21T03:09:56;8.10;;;4.78;;
27265;SDS011;14766;51.380;13.762;2023-02-21T03:15:18;9.63;;;5.10;;
27265;SDS011;14766;51.380;13.762;2023-02-21T03:20:51;6.30;;;4.30;;
27265;SDS011;14766;51.380;13.762;2023-02-21T03:23:22;5.72;;;4.15;;
27265;SDS011;14766;51.380;13.762;2023-02-21T03:25:53;7.30;;;4.22;;
27265;SDS011;14766;51.380;13.762;2023-02-21T03:28:25;7.00;;;4.47;;
27265;SDS011;14766;51.380;13.762;2023-02-21T03:30:54;8.38;;;4.72;;
27265;SDS011;14766;51.380;13.762;2023-02-21T03:33:23;6.00;;;4.78;;
27265;SDS011;14766;51.380;13.762;2023-02-21T03:35:51;7.35;;;4.60;;
27265;SDS011;14766;51.380;13.762;2023-02-21T03:38:18;7.03;;;4.35;;
27265;SDS011;14766;51.380;13.762;2023-02-21T03:40:48;6.00;;;4.13;;
27265;SDS011;14766;51.380;13.762;2023-02-21T03:43:15;7.75;;;4.80;;
27265;SDS011;14766;51.380;13.762;2023-02-21T03:45:48;5.35;;;4.03;;
27265;SDS011;14766;51.380;13.762;2023-02-21T03:48:17;8.85;;;5.13;;
27265;SDS011;14766;51.380;13.762;2023-02-21T03:51:02;7.65;;;4.38;;
27265;SDS011;14766;51.380;13.762;2023-02-21T03:53:34;6.65;;;4.70;;
27265;SDS011;14766;51.380;13.762;2023-02-21T03:56:02;7.53;;;4.53;;
27265;SDS011;14766;51.380;13.762;2023-02-21T03:58:45;9.65;;;5.32;;
27265;SDS011;14766;51.380;13.762;2023-02-21T04:01:16;10.02;;;5.20;;
27265;SDS011;14766;51.380;13.762;2023-02-21T04:03:43;7.00;;;4.50;;
27265;SDS011;14766;51.380;13.762;2023-02-21T04:06:10;7.32;;;4.60;;
27265;SDS011;14766;51.380;13.762;2023-02-21T04:08:37;7.18;;;4.55;;
27265;SDS011;14766;51.380;13.762;2023-02-21T04:11:04;7.38;;;5.30;;
27265;SDS011;14766;51.380;13.762;2023-02-21T04:13:33;7.72;;;4.93;;
27265;SDS011;14766;51.380;13.762;2023-02-21T04:16:01;7.50;;;4.82;;
27265;SDS011;14766;51.380;13.762;2023-02-21T04:18:31;7.00;;;4.75;;
27265;SDS011;14766;51.380;13.762;2023-02-21T04:20:59;8.20;;;5.05;;
27265;SDS011;14766;51.380;13.762;2023-02-21T04:23:27;6.25;;;4.30;;
27265;SDS011;14766;51.380;13.762;2023-02-21T04:25:54;8.52;;;5.43;;
27265;SDS011;14766;51.380;13.762;2023-02-21T04:28:35;7.00;;;4.97;;
27265;SDS011;14766;51.380;13.762;2023-02-21T04:31:03;8.32;;;5.30;;
27265;SDS011;14766;51.380;13.762;2023-02-21T04:33:30;8.00;;;5.50;;
27265;SDS011;14766;51.380;13.762;2023-02-21T04:35:58;7.30;;;5.25;;
27265;SDS011;14766;51.380;13.762;2023-02-21T04:38:34;8.88;;;5.68;;
27265;SDS011;14766;51.380;13.762;2023-02-21T04:41:03;9.50;;;5.40;;
27265;SDS011;14766;51.380;13.762;2023-02-21T04:43:31;8.55;;;5.45;;
27265;SDS011;14766;51.380;13.762;2023-02-21T04:45:58;10.05;;;6.18;;
27265;SDS011;14766;51.380;13.762;2023-02-21T04:48:25;11.60;;;6.97;;
27265;SDS011;14766;51.380;13.762;2023-02-21T04:50:53;8.13;;;5.97;;
27265;SDS011;14766;51.380;13.762;2023-02-21T04:53:24;8.88;;;5.97;;
27265;SDS011;14766;51.380;13.762;2023-02-21T04:55:51;10.80;;;6.13;;
27265;SDS011;14766;51.380;13.762;2023-02-21T04:58:18;11.27;;;6.70;;
27265;SDS011;14766;51.380;13.762;2023-02-21T05:00:45;9.13;;;6.20;;
27265;SDS011;14766;51.380;13.762;2023-02-21T05:03:13;13.98;;;6.95;;
27265;SDS011;14766;51.380;13.762;2023-02-21T05:05:40;9.43;;;6.82;;
27265;SDS011;14766;51.380;13.762;2023-02-21T05:08:07;10.05;;;6.50;;
27265;SDS011;14766;51.380;13.762;2023-02-21T05:10:34;10.43;;;6.97;;
27265;SDS011;14766;51.380;13.762;2023-02-21T05:13:11;11.73;;;6.85;;
27265;SDS011;14766;51.380;13.762;2023-02-21T05:15:38;10.93;;;7.05;;
27265;SDS011;14766;51.380;13.762;2023-02-21T05:18:06;12.38;;;7.93;;
27265;SDS011;14766;51.380;13.762;2023-02-21T05:20:33;10.77;;;7.57;;
27265;SDS011;14766;51.380;13.762;2023-02-21T05:23:00;13.80;;;8.38;;
27265;SDS011;14766;51.380;13.762;2023-02-21T05:25:38;13.23;;;8.05;;
27265;SDS011;14766;51.380;13.762;2023-02-21T05:28:05;11.30;;;6.78;;
27265;SDS011;14766;51.380;13.762;2023-02-21T05:30:32;11.05;;;7.32;;
27265;SDS011;14766;51.380;13.762;2023-02-21T05:32:59;12.80;;;8.10;;
27265;SDS011;14766;51.380;13.762;2023-02-21T05:35:27;11.70;;;7.75;;
27265;SDS011;14766;51.380;13.762;2023-02-21T05:37:54;12.63;;;7.50;;
27265;SDS011;14766;51.380;13.762;2023-02-21T05:40:21;13.57;;;8.73;;
27265;SDS011;14766;51.380;13.762;2023-02-21T05:42:48;12.32;;;7.78;;
27265;SDS011;14766;51.380;13.762;2023-02-21T05:45:15;10.73;;;7.43;;
27265;SDS011;14766;51.380;13.762;2023-02-21T05:47:43;12.35;;;8.30;;
27265;SDS011;14766;51.380;13.762;2023-02-21T05:50:11;12.23;;;7.97;;
27265;SDS011;14766;51.380;13.762;2023-02-21T05:52:38;12.48;;;7.88;;
27265;SDS011;14766;51.380;13.762;2023-02-21T05:55:05;15.38;;;9.27;;
27265;SDS011;14766;51.380;13.762;2023-02-21T05:57:36;12.05;;;8.23;;
27265;SDS011;14766;51.380;13.762;2023-02-21T06:00:04;13.15;;;8.80;;
27265;SDS011;14766;51.380;13.762;2023-02-21T06:02:37;15.02;;;9.75;;
27265;SDS011;14766;51.380;13.762;2023-02-21T06:05:04;12.68;;;8.05;;
27265;SDS011;14766;51.380;13.762;2023-02-21T06:07:32;16.23;;;9.48;;
27265;SDS011;14766;51.380;13.762;2023-02-21T06:09:59;13.93;;;9.77;;
27265;SDS011;14766;51.380;13.762;2023-02-21T06:12:26;17.40;;;10.60;;
27265;SDS011;14766;51.380;13.762;2023-02-21T06:14:53;14.70;;;9.90;;
27265;SDS011;14766;51.380;13.762;2023-02-21T06:17:20;19.20;;;10.68;;
27265;SDS011;14766;51.380;13.762;2023-02-21T06:19:47;16.08;;;9.18;;
27265;SDS011;14766;51.380;13.762;2023-02-21T06:22:14;17.15;;;9.68;;
27265;SDS011;14766;51.380;13.762;2023-02-21T06:24:41;15.55;;;10.60;;
27265;SDS011;14766;51.380;13.762;2023-02-21T06:27:09;15.38;;;10.18;;
27265;SDS011;14766;51.380;13.762;2023-02-21T06:29:36;14.02;;;9.52;;
27265;SDS011;14766;51.380;13.762;2023-02-21T06:32:03;13.88;;;8.90;;
27265;SDS011;14766;51.380;13.762;2023-02-21T06:34:30;15.07;;;9.82;;
27265;SDS011;14766;51.380;13.762;2023-02-21T06:36:57;17.67;;;10.35;;
27265;SDS011;14766;51.380;13.762;2023-02-21T06:39:24;14.75;;;10.07;;
27265;SDS011;14766;51.380;13.762;2023-02-21T06:41:51;15.48;;;9.80;;
27265;SDS011;14766;51.380;13.762;2023-02-21T06:44:18;15.77;;;10.60;;
27265;SDS011;14766;51.380;13.762;2023-02-21T06:46:47;16.65;;;10.05;;
27265;SDS011;14766;51.380;13.762;2023-02-21T06:49:15;13.55;;;9.32;;
27265;SDS011;14766;51.380;13.762;2023-02-21T06:51:43;15.40;;;9.48;;
27265;SDS011;14766;51.380;13.762;2023-02-21T06:54:10;17.95;;;11.15;;
27265;SDS011;14766;51.380;13.762;2023-02-21T06:56:38;16.42;;;9.60;;
27265;SDS011;14766;51.380;13.762;2023-02-21T06:59:08;17.10;;;10.75;;
27265;SDS011;14766;51.380;13.762;2023-02-21T07:01:35;15.02;;;9.85;;
27265;SDS011;14766;51.380;13.762;2023-02-21T07:04:02;16.23;;;10.27;;
27265;SDS011;14766;51.380;13.762;2023-02-21T07:06:29;16.48;;;9.95;;
27265;SDS011;14766;51.380;13.762;2023-02-21T07:08:58;17.05;;;10.82;;
27265;SDS011;14766;51.380;13.762;2023-02-21T07:11:25;18.23;;;11.18;;
27265;SDS011;14766;51.380;13.762;2023-02-21T07:13:54;15.75;;;10.25;;
27265;SDS011;14766;51.380;13.762;2023-02-21T07:16:22;17.80;;;10.90;;
27265;SDS011;14766;51.380;13.762;2023-02-21T07:18:49;18.45;;;10.70;;
27265;SDS011;14766;51.380;13.762;2023-02-21T07:21:17;19.40;;;10.90;;
27265;SDS011;14766;51.380;13.762;2023-02-21T07:23:46;18.50;;;10.75;;
27265;SDS011;14766;51.380;13.762;2023-02-21T07:26:14;18.58;;;11.43;;
27265;SDS011;14766;51.380;13.762;2023-02-21T07:28:41;18.52;;;11.00;;
27265;SDS011;14766;51.380;13.762;2023-02-21T07:31:08;22.60;;;11.50;;
27265;SDS011;14766;51.380;13.762;2023-02-21T07:33:39;18.55;;;11.57;;
27265;SDS011;14766;51.380;13.762;2023-02-21T07:36:06;19.17;;;12.32;;
27265;SDS011;14766;51.380;13.762;2023-02-21T07:38:33;19.52;;;11.48;;
27265;SDS011;14766;51.380;13.762;2023-02-21T07:41:01;16.95;;;10.93;;
27265;SDS011;14766;51.380;13.762;2023-02-21T07:43:29;17.00;;;10.57;;
27265;SDS011;14766;51.380;13.762;2023-02-21T07:45:56;20.10;;;11.73;;
27265;SDS011;14766;51.380;13.762;2023-02-21T07:48:23;18.70;;;11.57;;
27265;SDS011;14766;51.380;13.762;2023-02-21T07:50:51;19.33;;;11.38;;
27265;SDS011;14766;51.380;13.762;2023-02-21T07:53:18;21.23;;;13.20;;
27265;SDS011;14766;51.380;13.762;2023-02-21T07:55:45;21.13;;;12.98;;
27265;SDS011;14766;51.380;13.762;2023-02-21T07:58:13;20.40;;;12.35;;
27265;SDS011;14766;51.380;13.762;2023-02-21T08:00:40;19.65;;;11.30;;
27265;SDS011;14766;51.380;13.762;2023-02-21T08:03:08;19.00;;;10.57;;
27265;SDS011;14766;51.380;13.762;2023-02-21T08:05:39;16.88;;;10.27;;
27265;SDS011;14766;51.380;13.762;2023-02-21T08:08:07;17.27;;;10.93;;
27265;SDS011;14766;51.380;13.762;2023-02-21T08:10:35;18.17;;;10.73;;
27265;SDS011;14766;51.380;13.762;2023-02-21T08:13:02;17.40;;;11.40;;
27265;SDS011;14766;51.380;13.762;2023-02-21T08:15:30;20.23;;;12.82;;
27265;SDS011;14766;51.380;13.762;2023-02-21T08:17:57;19.10;;;11.18;;
27265;SDS011;14766;51.380;13.762;2023-02-21T08:20:24;16.77;;;10.30;;
27265;SDS011;14766;51.380;13.762;2023-02-21T08:22:51;17.75;;;10.60;;
27265;SDS011;14766;51.380;13.762;2023-02-21T08:25:19;18.10;;;11.25;;
27265;SDS011;14766;51.380;13.762;2023-02-21T08:27:46;17.05;;;11.65;;
27265;SDS011;14766;51.380;13.762;2023-02-21T08:30:18;18.50;;;11.50;;
27265;SDS011;14766;51.380;13.762;2023-02-21T08:32:46;19.33;;;12.25;;
27265;SDS011;14766;51.380;13.762;2023-02-21T08:35:14;18.27;;;11.15;;
27265;SDS011;14766;51.380;13.762;2023-02-21T08:37:45;19.05;;;11.65;;
27265;SDS011;14766;51.380;13.762;2023-02-21T08:40:14;18.92;;;11.18;;
27265;SDS011;14766;51.380;13.762;2023-02-21T08:42:47;16.48;;;10.52;;
27265;SDS011;14766;51.380;13.762;2023-02-21T08:45:16;17.30;;;10.73;;
27265;SDS011;14766;51.380;13.762;2023-02-21T08:47:44;19.80;;;11.88;;
27265;SDS011;14766;51.380;13.762;2023-02-21T08:50:12;16.98;;;10.52;;
27265;SDS011;14766;51.380;13.762;2023-02-21T08:52:40;16.73;;;10.88;;
27265;SDS011;14766;51.380;13.762;2023-02-21T08:55:07;15.27;;;10.27;;
27265;SDS011;14766;51.380;13.762;2023-02-21T08:57:34;14.27;;;9.93;;
27265;SDS011;14766;51.380;13.762;2023-02-21T09:00:01;15.35;;;10.43;;
27265;SDS011;14766;51.380;13.762;2023-02-21T09:02:31;15.85;;;9.70;;
27265;SDS011;14766;51.380;13.762;2023-02-21T09:04:58;18.45;;;10.02;;
27265;SDS011;14766;51.380;13.762;2023-02-21T09:07:25;17.23;;;9.75;;
27265;SDS011;14766;51.380;13.762;2023-02-21T09:09:54;15.65;;;9.70;;
27265;SDS011;14766;51.380;13.762;2023-02-21T09:12:21;15.98;;;9.93;;
27265;SDS011;14766;51.380;13.762;2023-02-21T09:14:48;15.98;;;9.60;;
27265;SDS011;14766;51.380;13.762;2023-02-21T09:17:15;15.70;;;9.95;;
27265;SDS011;14766;51.380;13.762;2023-02-21T09:19:42;15.63;;;9.88;;
27265;SDS011;14766;51.380;13.762;2023-02-21T09:22:10;16.20;;;9.80;;
27265;SDS011;14766;51.380;13.762;2023-02-21T09:24:37;14.38;;;9.65;;
27265;SDS011;14766;51.380;13.762;2023-02-21T09:27:04;18.63;;;10.88;;
27265;SDS011;14766;51.380;13.762;2023-02-21T09:29:33;16.25;;;10.02;;
27265;SDS011;14766;51.380;13.762;2023-02-21T09:32:12;15.55;;;10.30;;
27265;SDS011;14766;51.380;13.762;2023-02-21T09:34:39;16.80;;;9.40;;
27265;SDS011;14766;51.380;13.762;2023-02-21T09:37:07;16.17;;;10.60;;
27265;SDS011;14766;51.380;13.762;2023-02-21T09:39:36;16.50;;;9.73;;
27265;SDS011;14766;51.380;13.762;2023-02-21T09:42:04;17.02;;;10.55;;
27265;SDS011;14766;51.380;13.762;2023-02-21T09:44:32;15.23;;;9.63;;
27265;SDS011;14766;51.380;13.762;2023-02-21T09:47:01;15.82;;;9.75;;
27265;SDS011;14766;51.380;13.762;2023-02-21T09:49:34;15.82;;;9.30;;
27265;SDS011;14766;51.380;13.762;2023-02-21T09:52:06;18.25;;;10.70;;
27265;SDS011;14766;51.380;13.762;2023-02-21T09:54:55;19.40;;;10.50;;
27265;SDS011;14766;51.380;13.762;2023-02-21T09:57:23;13.52;;;8.95;;
27265;SDS011;14766;51.380;13.762;2023-02-21T09:59:50;17.27;;;10.02;;
27265;SDS011;14766;51.380;13.762;2023-02-21T10:05:13;15.13;;;9.63;;
27265;SDS011;14766;51.380;13.762;2023-02-21T10:07:54;15.85;;;10.00;;
27265;SDS011;14766;51.380;13.762;2023-02-21T10:10:47;16.98;;;9.48;;
27265;SDS011;14766;51.380;13.762;2023-02-21T10:21:43;15.95;;;9.57;;
27265;SDS011;14766;51.380;13.762;2023-02-21T10:24:22;18.25;;;10.93;;
27265;SDS011;14766;51.380;13.762;2023-02-21T10:27:11;14.57;;;9.85;;
27265;SDS011;14766;51.380;13.762;2023-02-21T10:32:14;13.32;;;8.60;;
27265;SDS011;14766;51.380;13.762;2023-02-21T10:34:42;14.73;;;8.85;;
27265;SDS011;14766;51.380;13.762;2023-02-21T10:40:09;15.82;;;8.82;;
27265;SDS011;14766;51.380;13.762;2023-02-21T10:42:42;12.73;;;8.13;;
27265;SDS011;14766;51.380;13.762;2023-02-21T10:45:14;14.48;;;9.18;;
27265;SDS011;14766;51.380;13.762;2023-02-21T10:53:05;15.65;;;8.70;;
27265;SDS011;14766;51.380;13.762;2023-02-21T10:55:32;13.82;;;8.65;;
27265;SDS011;14766;51.380;13.762;2023-02-21T10:58:09;12.63;;;7.40;;
27265;SDS011;14766;51.380;13.762;2023-02-21T11:00:49;12.13;;;7.18;;
27265;SDS011;14766;51.380;13.762;2023-02-21T11:03:23;11.82;;;7.65;;
27265;SDS011;14766;51.380;13.762;2023-02-21T11:05:54;12.55;;;8.27;;
27265;SDS011;14766;51.380;13.762;2023-02-21T11:11:07;13.27;;;6.85;;
27265;SDS011;14766;51.380;13.762;2023-02-21T11:13:35;9.00;;;6.43;;
27265;SDS011;14766;51.380;13.762;2023-02-21T11:16:15;13.07;;;6.50;;
27265;SDS011;14766;51.380;13.762;2023-02-21T11:18:44;10.45;;;6.28;;
27265;SDS011;14766;51.380;13.762;2023-02-21T11:21:15;11.85;;;7.03;;
27265;SDS011;14766;51.380;13.762;2023-02-21T11:23:45;10.57;;;6.20;;
27265;SDS011;14766;51.380;13.762;2023-02-21T11:26:23;9.75;;;6.22;;
27265;SDS011;14766;51.380;13.762;2023-02-21T11:28:51;9.23;;;6.15;;
27265;SDS011;14766;51.380;13.762;2023-02-21T11:31:26;13.23;;;6.88;;
27265;SDS011;14766;51.380;13.762;2023-02-21T11:33:57;9.82;;;6.25;;
27265;SDS011;14766;51.380;13.762;2023-02-21T11:36:27;10.85;;;6.63;;
27265;SDS011;14766;51.380;13.762;2023-02-21T11:39:02;10.45;;;6.15;;
27265;SDS011;14766;51.380;13.762;2023-02-21T11:41:49;10.10;;;6.43;;
27265;SDS011;14766;51.380;13.762;2023-02-21T11:47:10;13.07;;;7.75;;
27265;SDS011;14766;51.380;13.762;2023-02-21T11:52:21;11.88;;;7.68;;
27265;SDS011;14766;51.380;13.762;2023-02-21T11:54:55;10.98;;;6.93;;
27265;SDS011;14766;51.380;13.762;2023-02-21T12:00:14;10.18;;;6.80;;
27265;SDS011;14766;51.380;13.762;2023-02-21T12:11:13;12.15;;;6.97;;
27265;SDS011;14766;51.380;13.762;2023-02-21T12:42:19;9.88;;;6.03;;
27265;SDS011;14766;51.380;13.762;2023-02-21T12:50:52;8.85;;;5.65;;
27265;SDS011;14766;51.380;13.762;2023-02-21T12:53:35;11.02;;;6.68;;
27265;SDS011;14766;51.380;13.762;2023-02-21T12:59:03;11.50;;;7.38;;
27265;SDS011;14766;51.380;13.762;2023-02-21T13:01:40;13.63;;;8.25;;
27265;SDS011;14766;51.380;13.762;2023-02-21T13:04:31;12.60;;;7.78;;
27265;SDS011;14766;51.380;13.762;2023-02-21T13:07:11;8.32;;;5.70;;
27265;SDS011;14766;51.380;13.762;2023-02-21T13:15:21;8.98;;;6.20;;
27265;SDS011;14766;51.380;13.762;2023-02-21T13:17:51;8.27;;;5.72;;
27265;SDS011;14766;51.380;13.762;2023-02-21T13:20:25;8.85;;;5.95;;
27265;SDS011;14766;51.380;13.762;2023-02-21T13:26:44;8.80;;;5.60;;
27265;SDS011;14766;51.380;13.762;2023-02-21T13:31:57;8.55;;;6.10;;
27265;SDS011;14766;51.380;13.762;2023-02-21T13:34:27;10.60;;;6.28;;
27265;SDS011;14766;51.380;13.762;2023-02-21T13:37:01;7.95;;;5.05;;
27265;SDS011;14766;51.380;13.762;2023-02-21T13:39:32;9.18;;;5.75;;
27265;SDS011;14766;51.380;13.762;2023-02-21T13:42:06;8.23;;;5.50;;
27265;SDS011;14766;51.380;13.762;2023-02-21T13:44:40;8.65;;;5.75;;
27265;SDS011;14766;51.380;13.762;2023-02-21T13:47:14;8.95;;;5.50;;
27265;SDS011;14766;51.380;13.762;2023-02-21T13:49:55;8.38;;;5.60;;
27265;SDS011;14766;51.380;13.762;2023-02-21T13:52:26;9.15;;;5.63;;
27265;SDS011;14766;51.380;13.762;2023-02-21T14:03:10;9.13;;;5.75;;
27265;SDS011;14766;51.380;13.762;2023-02-21T14:13:53;7.05;;;4.80;;
27265;SDS011;14766;51.380;13.762;2023-02-21T14:16:27;9.77;;;5.30;;
27265;SDS011;14766;51.380;13.762;2023-02-21T14:24:42;7.00;;;5.18;;
27265;SDS011;14766;51.380;13.762;2023-02-21T14:29:44;8.32;;;6.20;;
27265;SDS011;14766;51.380;13.762;2023-02-21T14:32:26;9.07;;;5.78;;
27265;SDS011;14766;51.380;13.762;2023-02-21T14:35:13;8.15;;;5.38;;
27265;SDS011;14766;51.380;13.762;2023-02-21T14:38:20;9.63;;;6.00;;
27265;SDS011;14766;51.380;13.762;2023-02-21T14:41:00;7.88;;;5.43;;
27265;SDS011;14766;51.380;13.762;2023-02-21T14:49:52;8.90;;;5.22;;
27265;SDS011;14766;51.380;13.762;2023-02-21T14:52:35;7.28;;;5.43;;
27265;SDS011;14766;51.380;13.762;2023-02-21T14:58:34;7.95;;;5.25;;
27265;SDS011;14766;51.380;13.762;2023-02-21T15:06:34;9.63;;;6.03;;
27265;SDS011;14766;51.380;13.762;2023-02-21T15:09:16;7.10;;;5.32;;
27265;SDS011;14766;51.380;13.762;2023-02-21T15:11:44;8.55;;;5.68;;
27265;SDS011;14766;51.380;13.762;2023-02-21T15:14:18;8.20;;;5.55;;
27265;SDS011;14766;51.380;13.762;2023-02-21T15:16:52;8.27;;;5.85;;
27265;SDS011;14766;51.380;13.762;2023-02-21T15:19:26;9.18;;;6.05;;
27265;SDS011;14766;51.380;13.762;2023-02-21T15:22:12;8.25;;;5.80;;
27265;SDS011;14766;51.380;13.762;2023-02-21T15:32:53;9.48;;;6.25;;
27265;SDS011;14766;51.380;13.762;2023-02-21T15:35:42;8.27;;;5.93;;
27265;SDS011;14766;51.380;13.762;2023-02-21T15:38:33;9.32;;;6.93;;
27265;SDS011;14766;51.380;13.762;2023-02-21T15:41:07;10.60;;;6.28;;
27265;SDS011;14766;51.380;13.762;2023-02-21T15:46:14;9.05;;;6.97;;
27265;SDS011;14766;51.380;13.762;2023-02-21T15:48:46;10.93;;;7.43;;
27265;SDS011;14766;51.380;13.762;2023-02-21T15:51:13;11.63;;;7.72;;
27265;SDS011;14766;51.380;13.762;2023-02-21T15:53:42;14.75;;;9.55;;
27265;SDS011;14766;51.380;13.762;2023-02-21T15:56:30;14.10;;;9.43;;
27265;SDS011;14766;51.380;13.762;2023-02-21T15:59:10;12.38;;;8.45;;
27265;SDS011;14766;51.380;13.762;2023-02-21T16:01:38;12.25;;;8.95;;
27265;SDS011;14766;51.380;13.762;2023-02-21T16:04:13;13.85;;;9.35;;
27265;SDS011;14766;51.380;13.762;2023-02-21T16:06:53;12.48;;;8.50;;
27265;SDS011;14766;51.380;13.762;2023-02-21T16:09:29;12.45;;;8.50;;
27265;SDS011;14766;51.380;13.762;2023-02-21T16:12:24;10.40;;;8.05;;
27265;SDS011;14766;51.380;13.762;2023-02-21T16:17:40;11.48;;;8.20;;
27265;SDS011;14766;51.380;13.762;2023-02-21T16:20:19;15.30;;;9.60;;
27265;SDS011;14766;51.380;13.762;2023-02-21T16:23:13;13.80;;;8.75;;
27265;SDS011;14766;51.380;13.762;2023-02-21T16:28:54;16.55;;;9.85;;
27265;SDS011;14766;51.380;13.762;2023-02-21T16:33:58;22.75;;;14.02;;
27265;SDS011;14766;51.380;13.762;2023-02-21T16:36:27;26.33;;;16.35;;
27265;SDS011;14766;51.380;13.762;2023-02-21T16:38:55;24.08;;;16.27;;
27265;SDS011;14766;51.380;13.762;2023-02-21T16:41:24;25.67;;;15.52;;
27265;SDS011;14766;51.380;13.762;2023-02-21T16:43:51;24.15;;;14.93;;
27265;SDS011;14766;51.380;13.762;2023-02-21T16:46:23;23.63;;;14.55;;
27265;SDS011;14766;51.380;13.762;2023-02-21T16:48:56;23.45;;;14.30;;
27265;SDS011;14766;51.380;13.762;2023-02-21T16:51:24;19.25;;;12.60;;
27265;SDS011;14766;51.380;13.762;2023-02-21T16:53:59;22.23;;;14.38;;
27265;SDS011;14766;51.380;13.762;2023-02-21T16:56:26;32.33;;;19.95;;
27265;SDS011;14766;51.380;13.762;2023-02-21T16:58:54;35.13;;;21.48;;
27265;SDS011;14766;51.380;13.762;2023-02-21T17:01:26;33.92;;;21.58;;
27265;SDS011;14766;51.380;13.762;2023-02-21T17:03:55;31.45;;;21.23;;
27265;SDS011;14766;51.380;13.762;2023-02-21T17:06:23;32.17;;;21.30;;
27265;SDS011;14766;51.380;13.762;2023-02-21T17:08:51;26.23;;;18.42;;
27265;SDS011;14766;51.380;13.762;2023-02-21T17:11:18;23.10;;;15.73;;
27265;SDS011;14766;51.380;13.762;2023-02-21T17:13:46;18.35;;;12.60;;
27265;SDS011;14766;51.380;13.762;2023-02-21T17:16:13;15.13;;;11.05;;
27265;SDS011;14766;51.380;13.762;2023-02-21T17:18:42;11.63;;;9.10;;
27265;SDS011;14766;51.380;13.762;2023-02-21T17:21:10;14.45;;;9.73;;
27265;SDS011;14766;51.380;13.762;2023-02-21T17:23:38;13.98;;;8.73;;
27265;SDS011;14766;51.380;13.762;2023-02-21T17:26:06;11.70;;;8.15;;
27265;SDS011;14766;51.380;13.762;2023-02-21T17:28:33;12.80;;;7.43;;
27265;SDS011;14766;51.380;13.762;2023-02-21T17:31:03;10.98;;;7.38;;
27265;SDS011;14766;51.380;13.762;2023-02-21T17:33:31;12.15;;;7.32;;
27265;SDS011;14766;51.380;13.762;2023-02-21T17:36:00;9.57;;;6.05;;
27265;SDS011;14766;51.380;13.762;2023-02-21T17:38:28;8.98;;;6.63;;
27265;SDS011;14766;51.380;13.762;2023-02-21T17:40:55;10.32;;;6.85;;
27265;SDS011;14766;51.380;13.762;2023-02-21T17:43:22;12.10;;;6.80;;
27265;SDS011;14766;51.380;13.762;2023-02-21T17:45:50;10.85;;;7.07;;
27265;SDS011;14766;51.380;13.762;2023-02-21T17:48:18;10.27;;;6.80;;
27265;SDS011;14766;51.380;13.762;2023-02-21T17:50:45;9.05;;;6.13;;
27265;SDS011;14766;51.380;13.762;2023-02-21T17:53:12;8.57;;;6.15;;
27265;SDS011;14766;51.380;13.762;2023-02-21T17:55:39;10.60;;;7.07;;
27265;SDS011;14766;51.380;13.762;2023-02-21T17:58:06;8.65;;;6.40;;
27265;SDS011;14766;51.380;13.762;2023-02-21T18:00:35;9.85;;;6.97;;
27265;SDS011;14766;51.380;13.762;2023-02-21T18:03:02;8.95;;;6.55;;
27265;SDS011;14766;51.380;13.762;2023-02-21T18:05:31;11.30;;;6.25;;
27265;SDS011;14766;51.380;13.762;2023-02-21T18:07:58;9.23;;;6.30;;
27265;SDS011;14766;51.380;13.762;2023-02-21T18:10:25;10.52;;;6.63;;
27265;SDS011;14766;51.380;13.762;2023-02-21T18:12:53;8.13;;;6.18;;